Terminal Aerodrome Forecast
Issued by NWS Pocatello, ID

Home | Current Version | Previous Version | Text Only | Print | Product List | Glossary On
Versions: 1 2 3 4 5 6 7 8 9 10 11 12 13 14 15 16 17
000
FTUS45 KPIH 041733
TAFPIH
TAF
KPIH 041733Z 0418/0518 VRB06KT P6SM FEW080 SCT200
     FM041900 20012G18KT P6SM SCT080 SCT130 BKN200
     FM042200 21015G27KT P6SM VCTS BKN090CB BKN130
     FM050300 19011KT P6SM VCSH BKN120
     FM051300 21012G22KT P6SM BKN120=

USA.gov is the U.S. government's official web portal to all federal, state and local government web resources and services.